Puerto Banus, Marbella

>

This is an optional block (switch it off / on) in the settings - file ($SITE['banners'] = false;)

You can display ads, any other important text or photo’s using text / html or PHP code.

You can place one or more at the top and or bottom and it can all be different for content / size .



Meteosat more information blitzortung!


Radar lluvias  rain snow radar


Visita nuestra red de sitios de meteo:

Documentation for the template used

MeteoibericaRed estaciones Meteorologicas

MeteoclimaticRed estaciones Meteorologicas



Sin Advertencias climatologicas .En este momento tenemos Nivel Verde.    No hay Alarmas

Pagina Historial Weather Underground texto

Diario Resumen January 3, 2017 Unidades:  Tanto    impérial   Métrico
« Anterior Dia
Siguiente Dia »
Diario Semana Mensual Anual Personalizada
  Maxima: Minima: Media:
Temperatura: 60.6 °F /  15.9 °C 49.8 °F /  9.9 °C 54.7 °F /  12.6 °C
Punto de rocío: 54.5 °F /  12.5 °C 44.8 °F /  7.1 °C 48.7 °F /  9.3 °C
Humedad: 86 % 71 % 81 %
Velocidad del Viento: 12.7 mph /  20.4 km/h - 7.1 mph /  11.4 km/h
Ráfagas de viento: 12.7 mph /  20.4 km/h - -
Viento:- - West
Pression baro: 30.3 in /  1026.3 hPa 30.2 in /  1023.2 hPa -
Précipitaciones: 0 in /  0.0 mm    
Historical Graphs
 
 
Datos de tabla para January 3, 2017
Tiempo Temperatura Punto de rocío Pression baro Viento Velocidad del Viento Ráfagas de viento Humedad Las precipitaciones Rate ( Hora )
00:01 52.2 °F /  11.2 °C 46.4 °F /  8.0 °C 30.2 in /  1023.6 hPa North 10.4 mph /  16.7 km/h 10.4 mph /  16.7 km/h 81 % 0 in /  0.0 mm
00:06 52 °F /  11.1 °C 46.2 °F /  7.9 °C 30.2 in /  1023.6 hPa NNE 12.7 mph /  20.4 km/h 12.7 mph /  20.4 km/h 81 % 0 in /  0.0 mm
00:11 52 °F /  11.1 °C 46.2 °F /  7.9 °C 30.2 in /  1023.6 hPa North 11.5 mph /  18.5 km/h 11.5 mph /  18.5 km/h 81 % 0 in /  0.0 mm
00:16 52 °F /  11.1 °C 46.2 °F /  7.9 °C 30.2 in /  1023.6 hPa North 12.7 mph /  20.4 km/h 12.7 mph /  20.4 km/h 81 % 0 in /  0.0 mm
00:21 52 °F /  11.1 °C 45.9 °F /  7.7 °C 30.2 in /  1023.6 hPa North 11.5 mph /  18.5 km/h 11.5 mph /  18.5 km/h 80 % 0 in /  0.0 mm
00:26 51.8 °F /  11.0 °C 46.2 °F /  7.9 °C 30.2 in /  1023.6 hPa North 11.5 mph /  18.5 km/h 11.5 mph /  18.5 km/h 81 % 0 in /  0.0 mm
00:31 51.6 °F /  10.9 °C 45.7 °F /  7.6 °C 30.2 in /  1023.6 hPa North 11.5 mph /  18.5 km/h 11.5 mph /  18.5 km/h 80 % 0 in /  0.0 mm
00:36 51.6 °F /  10.9 °C 45.7 °F /  7.6 °C 30.2 in /  1023.6 hPa North 11.5 mph /  18.5 km/h 11.5 mph /  18.5 km/h 80 % 0 in /  0.0 mm
00:41 51.6 °F /  10.9 °C 46 °F /  7.8 °C 30.2 in /  1023.6 hPa North 9.2 mph /  14.8 km/h 9.2 mph /  14.8 km/h 81 % 0 in /  0.0 mm
00:46 51.4 °F /  10.8 °C 45.9 °F /  7.7 °C 30.2 in /  1023.6 hPa NNE 8.1 mph /  13.0 km/h 8.1 mph /  13.0 km/h 81 % 0 in /  0.0 mm
00:51 51.4 °F /  10.8 °C 45.9 °F /  7.7 °C 30.2 in /  1023.6 hPa North 11.5 mph /  18.5 km/h 11.5 mph /  18.5 km/h 81 % 0 in /  0.0 mm
00:56 51.4 °F /  10.8 °C 45.9 °F /  7.7 °C 30.2 in /  1023.6 hPa North 11.5 mph /  18.5 km/h 11.5 mph /  18.5 km/h 81 % 0 in /  0.0 mm
01:01 51.4 °F /  10.8 °C 45.9 °F /  7.7 °C 30.2 in /  1023.6 hPa North 10.4 mph /  16.7 km/h 10.4 mph /  16.7 km/h 81 % 0 in /  0.0 mm
01:06 51.4 °F /  10.8 °C 45.9 °F /  7.7 °C 30.2 in /  1023.6 hPa North 9.2 mph /  14.8 km/h 9.2 mph /  14.8 km/h 81 % 0 in /  0.0 mm
01:11 51.4 °F /  10.8 °C 45.9 °F /  7.7 °C 30.2 in /  1023.2 hPa North 11.5 mph /  18.5 km/h 11.5 mph /  18.5 km/h 81 % 0 in /  0.0 mm
01:17 51.4 °F /  10.8 °C 45.9 °F /  7.7 °C 30.2 in /  1023.2 hPa North 11.5 mph /  18.5 km/h 11.5 mph /  18.5 km/h 81 % 0 in /  0.0 mm
01:22 51.4 °F /  10.8 °C 45.9 °F /  7.7 °C 30.2 in /  1023.2 hPa North 11.5 mph /  18.5 km/h 11.5 mph /  18.5 km/h 81 % 0 in /  0.0 mm
01:27 51.4 °F /  10.8 °C 45.9 °F /  7.7 °C 30.2 in /  1023.2 hPa North 11.5 mph /  18.5 km/h 11.5 mph /  18.5 km/h 81 % 0 in /  0.0 mm
01:32 51.4 °F /  10.8 °C 45.9 °F /  7.7 °C 30.2 in /  1023.2 hPa NNE 10.4 mph /  16.7 km/h 10.4 mph /  16.7 km/h 81 % 0 in /  0.0 mm
01:37 51.3 °F /  10.7 °C 45.7 °F /  7.6 °C 30.2 in /  1023.2 hPa NNW 11.5 mph /  18.5 km/h 11.5 mph /  18.5 km/h 81 % 0 in /  0.0 mm
01:42 51.3 °F /  10.7 °C 45.7 °F /  7.6 °C 30.2 in /  1023.2 hPa NNW 11.5 mph /  18.5 km/h 11.5 mph /  18.5 km/h 81 % 0 in /  0.0 mm
01:47 51.3 °F /  10.7 °C 45.7 °F /  7.6 °C 30.2 in /  1023.2 hPa North 11.5 mph /  18.5 km/h 11.5 mph /  18.5 km/h 81 % 0 in /  0.0 mm
01:52 51.3 °F /  10.7 °C 45.7 °F /  7.6 °C 30.2 in /  1023.2 hPa North 11.5 mph /  18.5 km/h 11.5 mph /  18.5 km/h 81 % 0 in /  0.0 mm
01:57 51.3 °F /  10.7 °C 45.7 °F /  7.6 °C 30.2 in /  1023.2 hPa NNE 10.4 mph /  16.7 km/h 10.4 mph /  16.7 km/h 81 % 0 in /  0.0 mm
02:02 51.3 °F /  10.7 °C 45.7 °F /  7.6 °C 30.2 in /  1023.2 hPa North 9.2 mph /  14.8 km/h 9.2 mph /  14.8 km/h 81 % 0 in /  0.0 mm
02:07 51.4 °F /  10.8 °C 45.9 °F /  7.7 °C 30.2 in /  1023.2 hPa NNE 6.9 mph /  11.1 km/h 6.9 mph /  11.1 km/h 81 % 0 in /  0.0 mm
02:12 51.4 °F /  10.8 °C 45.9 °F /  7.7 °C 30.2 in /  1023.2 hPa NNW 10.4 mph /  16.7 km/h 10.4 mph /  16.7 km/h 81 % 0 in /  0.0 mm
02:17 51.6 °F /  10.9 °C 45.7 °F /  7.6 °C 30.2 in /  1023.2 hPa NNW 9.2 mph /  14.8 km/h 9.2 mph /  14.8 km/h 80 % 0 in /  0.0 mm
02:22 51.6 °F /  10.9 °C 45.7 °F /  7.6 °C 30.2 in /  1023.2 hPa North 10.4 mph /  16.7 km/h 10.4 mph /  16.7 km/h 80 % 0 in /  0.0 mm
02:27 51.4 °F /  10.8 °C 45.5 °F /  7.5 °C 30.2 in /  1023.2 hPa North 10.4 mph /  16.7 km/h 10.4 mph /  16.7 km/h 80 % 0 in /  0.0 mm
02:32 51.4 °F /  10.8 °C 45.5 °F /  7.5 °C 30.2 in /  1023.2 hPa NNW 8.1 mph /  13.0 km/h 8.1 mph /  13.0 km/h 80 % 0 in /  0.0 mm
02:37 51.4 °F /  10.8 °C 45.3 °F /  7.4 °C 30.2 in /  1023.2 hPa NNW 10.4 mph /  16.7 km/h 10.4 mph /  16.7 km/h 80 % 0 in /  0.0 mm
02:42 51.3 °F /  10.7 °C 45.1 °F /  7.3 °C 30.2 in /  1023.2 hPa NNE 12 mph /  19.3 km/h 12 mph /  19.3 km/h 80 % 0 in /  0.0 mm
02:47 51.1 °F /  10.6 °C 45 °F /  7.2 °C 30.2 in /  1023.2 hPa North 9.2 mph /  14.8 km/h 9.2 mph /  14.8 km/h 80 % 0 in /  0.0 mm
02:52 50.7 °F /  10.4 °C 45.1 °F /  7.3 °C 30.2 in /  1023.2 hPa North 9.2 mph /  14.8 km/h 9.2 mph /  14.8 km/h 81 % 0 in /  0.0 mm
02:57 50.7 °F /  10.4 °C 45.1 °F /  7.3 °C 30.2 in /  1023.2 hPa NNW 9.2 mph /  14.8 km/h 9.2 mph /  14.8 km/h 81 % 0 in /  0.0 mm
03:02 50.7 °F /  10.4 °C 45.1 °F /  7.3 °C 30.2 in /  1023.2 hPa North 11.5 mph /  18.5 km/h 11.5 mph /  18.5 km/h 81 % 0 in /  0.0 mm
03:07 50.5 °F /  10.3 °C 45 °F /  7.2 °C 30.2 in /  1023.2 hPa North 11.5 mph /  18.5 km/h 11.5 mph /  18.5 km/h 81 % 0 in /  0.0 mm
03:12 50.5 °F /  10.3 °C 45 °F /  7.2 °C 30.2 in /  1023.2 hPa NNW 11.5 mph /  18.5 km/h 11.5 mph /  18.5 km/h 81 % 0 in /  0.0 mm
03:17 50.5 °F /  10.3 °C 45 °F /  7.2 °C 30.2 in /  1023.2 hPa North 10.4 mph /  16.7 km/h 10.4 mph /  16.7 km/h 81 % 0 in /  0.0 mm
03:22 50.4 °F /  10.2 °C 45.1 °F /  7.3 °C 30.2 in /  1023.2 hPa North 9.2 mph /  14.8 km/h 9.2 mph /  14.8 km/h 82 % 0 in /  0.0 mm
03:27 50.4 °F /  10.2 °C 45.1 °F /  7.3 °C 30.2 in /  1023.2 hPa North 10.4 mph /  16.7 km/h 10.4 mph /  16.7 km/h 82 % 0 in /  0.0 mm
03:32 50.4 °F /  10.2 °C 45.1 °F /  7.3 °C 30.2 in /  1023.2 hPa NNW 10 mph /  16.1 km/h 10 mph /  16.1 km/h 82 % 0 in /  0.0 mm
03:37 50.4 °F /  10.2 °C 45.1 °F /  7.3 °C 30.2 in /  1023.2 hPa North 9.2 mph /  14.8 km/h 9.2 mph /  14.8 km/h 82 % 0 in /  0.0 mm
03:42 50.4 °F /  10.2 °C 45 °F /  7.2 °C 30.2 in /  1023.2 hPa North 9.2 mph /  14.8 km/h 9.2 mph /  14.8 km/h 82 % 0 in /  0.0 mm
03:47 50.4 °F /  10.2 °C 45 °F /  7.2 °C 30.2 in /  1023.2 hPa North 10.4 mph /  16.7 km/h 10.4 mph /  16.7 km/h 82 % 0 in /  0.0 mm
03:52 50.2 °F /  10.1 °C 45 °F /  7.2 °C 30.2 in /  1023.2 hPa North 9.2 mph /  14.8 km/h 9.2 mph /  14.8 km/h 82 % 0 in /  0.0 mm
03:57 50.2 °F /  10.1 °C 44.8 °F /  7.1 °C 30.2 in /  1023.2 hPa North 10.4 mph /  16.7 km/h 10.4 mph /  16.7 km/h 82 % 0 in /  0.0 mm
04:02 50.2 °F /  10.1 °C 44.8 °F /  7.1 °C 30.2 in /  1023.6 hPa North 8.1 mph /  13.0 km/h 8.1 mph /  13.0 km/h 82 % 0 in /  0.0 mm
04:07 50.2 °F /  10.1 °C 44.8 °F /  7.1 °C 30.2 in /  1023.6 hPa NNW 8.1 mph /  13.0 km/h 8.1 mph /  13.0 km/h 82 % 0 in /  0.0 mm
04:12 50.2 °F /  10.1 °C 44.8 °F /  7.1 °C 30.2 in /  1023.6 hPa NNW 8.1 mph /  13.0 km/h 8.1 mph /  13.0 km/h 82 % 0 in /  0.0 mm
04:17 50.2 °F /  10.1 °C 44.8 °F /  7.1 °C 30.2 in /  1023.2 hPa NNW 10.4 mph /  16.7 km/h 10.4 mph /  16.7 km/h 82 % 0 in /  0.0 mm
04:22 50 °F /  10.0 °C 44.8 °F /  7.1 °C 30.2 in /  1023.2 hPa North 8.1 mph /  13.0 km/h 8.1 mph /  13.0 km/h 82 % 0 in /  0.0 mm
04:27 50 °F /  10.0 °C 45 °F /  7.2 °C 30.2 in /  1023.2 hPa North 11.5 mph /  18.5 km/h 11.5 mph /  18.5 km/h 83 % 0 in /  0.0 mm
04:32 50 °F /  10.0 °C 45 °F /  7.2 °C 30.2 in /  1023.2 hPa North 10.4 mph /  16.7 km/h 10.4 mph /  16.7 km/h 83 % 0 in /  0.0 mm
04:37 49.8 °F /  9.9 °C 45 °F /  7.2 °C 30.2 in /  1023.2 hPa North 10.4 mph /  16.7 km/h 10.4 mph /  16.7 km/h 83 % 0 in /  0.0 mm
04:42 49.8 °F /  9.9 °C 45 °F /  7.2 °C 30.2 in /  1023.2 hPa North 8.1 mph /  13.0 km/h 8.1 mph /  13.0 km/h 83 % 0 in /  0.0 mm
04:47 49.8 °F /  9.9 °C 44.8 °F /  7.1 °C 30.2 in /  1023.2 hPa North 9.2 mph /  14.8 km/h 9.2 mph /  14.8 km/h 83 % 0 in /  0.0 mm
04:52 49.8 °F /  9.9 °C 45 °F /  7.2 °C 30.2 in /  1023.2 hPa NNW 10.4 mph /  16.7 km/h 10.4 mph /  16.7 km/h 83 % 0 in /  0.0 mm
04:57 49.8 °F /  9.9 °C 45 °F /  7.2 °C 30.2 in /  1023.2 hPa NNW 9.2 mph /  14.8 km/h 9.2 mph /  14.8 km/h 83 % 0 in /  0.0 mm
05:02 49.8 °F /  9.9 °C 45 °F /  7.2 °C 30.2 in /  1023.2 hPa North 11.5 mph /  18.5 km/h 11.5 mph /  18.5 km/h 83 % 0 in /  0.0 mm
05:07 49.8 °F /  9.9 °C 45 °F /  7.2 °C 30.2 in /  1023.2 hPa North 9.2 mph /  14.8 km/h 9.2 mph /  14.8 km/h 83 % 0 in /  0.0 mm
05:12 49.8 °F /  9.9 °C 45 °F /  7.2 °C 30.2 in /  1023.2 hPa North 9.2 mph /  14.8 km/h 9.2 mph /  14.8 km/h 83 % 0 in /  0.0 mm
05:17 49.8 °F /  9.9 °C 45 °F /  7.2 °C 30.2 in /  1023.2 hPa NNW 10.4 mph /  16.7 km/h 10.4 mph /  16.7 km/h 83 % 0 in /  0.0 mm
05:22 49.8 °F /  9.9 °C 45 °F /  7.2 °C 30.2 in /  1023.2 hPa NNW 6.9 mph /  11.1 km/h 6.9 mph /  11.1 km/h 83 % 0 in /  0.0 mm
05:27 50 °F /  10.0 °C 45 °F /  7.2 °C 30.2 in /  1023.2 hPa NNW 9.2 mph /  14.8 km/h 9.2 mph /  14.8 km/h 83 % 0 in /  0.0 mm
05:32 50 °F /  10.0 °C 45 °F /  7.2 °C 30.2 in /  1023.2 hPa North 8.1 mph /  13.0 km/h 8.1 mph /  13.0 km/h 83 % 0 in /  0.0 mm
05:37 50 °F /  10.0 °C 45 °F /  7.2 °C 30.2 in /  1023.2 hPa North 8.1 mph /  13.0 km/h 8.1 mph /  13.0 km/h 83 % 0 in /  0.0 mm
05:42 50 °F /  10.0 °C 45 °F /  7.2 °C 30.2 in /  1023.6 hPa North 9.2 mph /  14.8 km/h 9.2 mph /  14.8 km/h 83 % 0 in /  0.0 mm
05:47 49.8 °F /  9.9 °C 45 °F /  7.2 °C 30.2 in /  1023.6 hPa North 9.2 mph /  14.8 km/h 9.2 mph /  14.8 km/h 83 % 0 in /  0.0 mm
05:52 49.8 °F /  9.9 °C 45 °F /  7.2 °C 30.2 in /  1023.6 hPa North 9.2 mph /  14.8 km/h 9.2 mph /  14.8 km/h 83 % 0 in /  0.0 mm
05:57 49.8 °F /  9.9 °C 45 °F /  7.2 °C 30.2 in /  1023.6 hPa NNW 9.2 mph /  14.8 km/h 9.2 mph /  14.8 km/h 83 % 0 in /  0.0 mm
06:02 49.8 °F /  9.9 °C 45 °F /  7.2 °C 30.2 in /  1023.6 hPa North 10.4 mph /  16.7 km/h 10.4 mph /  16.7 km/h 83 % 0 in /  0.0 mm
06:07 49.8 °F /  9.9 °C 45 °F /  7.2 °C 30.2 in /  1023.2 hPa North 8.1 mph /  13.0 km/h 8.1 mph /  13.0 km/h 83 % 0 in /  0.0 mm
06:13 50 °F /  10.0 °C 45 °F /  7.2 °C 30.2 in /  1023.2 hPa North 9.2 mph /  14.8 km/h 9.2 mph /  14.8 km/h 83 % 0 in /  0.0 mm
06:17 50 °F /  10.0 °C 45 °F /  7.2 °C 30.2 in /  1023.2 hPa North 10.4 mph /  16.7 km/h 10.4 mph /  16.7 km/h 83 % 0 in /  0.0 mm
06:22 50 °F /  10.0 °C 45 °F /  7.2 °C 30.2 in /  1023.2 hPa North 9.2 mph /  14.8 km/h 9.2 mph /  14.8 km/h 83 % 0 in /  0.0 mm
06:27 49.8 °F /  9.9 °C 45 °F /  7.2 °C 30.2 in /  1023.6 hPa North 8.1 mph /  13.0 km/h 8.1 mph /  13.0 km/h 83 % 0 in /  0.0 mm
06:32 50 °F /  10.0 °C 45 °F /  7.2 °C 30.2 in /  1023.6 hPa North 8.1 mph /  13.0 km/h 8.1 mph /  13.0 km/h 83 % 0 in /  0.0 mm
06:38 50 °F /  10.0 °C 45 °F /  7.2 °C 30.2 in /  1023.6 hPa North 9 mph /  14.5 km/h 9 mph /  14.5 km/h 83 % 0 in /  0.0 mm
06:43 50 °F /  10.0 °C 45 °F /  7.2 °C 30.2 in /  1023.6 hPa NNW 8.1 mph /  13.0 km/h 8.1 mph /  13.0 km/h 83 % 0 in /  0.0 mm
06:48 50 °F /  10.0 °C 45 °F /  7.2 °C 30.2 in /  1023.6 hPa North 9.2 mph /  14.8 km/h 9.2 mph /  14.8 km/h 83 % 0 in /  0.0 mm
06:53 50 °F /  10.0 °C 45 °F /  7.2 °C 30.2 in /  1023.6 hPa NNW 9.2 mph /  14.8 km/h 9.2 mph /  14.8 km/h 83 % 0 in /  0.0 mm
06:58 50 °F /  10.0 °C 45 °F /  7.2 °C 30.2 in /  1023.6 hPa North 6.9 mph /  11.1 km/h 6.9 mph /  11.1 km/h 83 % 0 in /  0.0 mm
07:03 50 °F /  10.0 °C 45 °F /  7.2 °C 30.2 in /  1023.6 hPa NNW 10.4 mph /  16.7 km/h 10.4 mph /  16.7 km/h 83 % 0 in /  0.0 mm
07:08 49.8 °F /  9.9 °C 45 °F /  7.2 °C 30.2 in /  1023.6 hPa North 8.1 mph /  13.0 km/h 8.1 mph /  13.0 km/h 83 % 0 in /  0.0 mm
07:13 49.8 °F /  9.9 °C 45 °F /  7.2 °C 30.2 in /  1023.6 hPa North 9.2 mph /  14.8 km/h 9.2 mph /  14.8 km/h 83 % 0 in /  0.0 mm
07:18 49.8 °F /  9.9 °C 45 °F /  7.2 °C 30.2 in /  1023.6 hPa North 10.4 mph /  16.7 km/h 10.4 mph /  16.7 km/h 83 % 0 in /  0.0 mm
07:23 50 °F /  10.0 °C 45 °F /  7.2 °C 30.2 in /  1023.6 hPa North 8.1 mph /  13.0 km/h 8.1 mph /  13.0 km/h 83 % 0 in /  0.0 mm
07:28 50 °F /  10.0 °C 45 °F /  7.2 °C 30.2 in /  1023.9 hPa NNW 8.1 mph /  13.0 km/h 8.1 mph /  13.0 km/h 83 % 0 in /  0.0 mm
07:33 50 °F /  10.0 °C 45 °F /  7.2 °C 30.2 in /  1023.9 hPa North 11.5 mph /  18.5 km/h 11.5 mph /  18.5 km/h 83 % 0 in /  0.0 mm
07:38 50 °F /  10.0 °C 45.3 °F /  7.4 °C 30.2 in /  1023.9 hPa North 9.2 mph /  14.8 km/h 9.2 mph /  14.8 km/h 84 % 0 in /  0.0 mm
07:43 50 °F /  10.0 °C 45.3 °F /  7.4 °C 30.2 in /  1023.9 hPa North 10 mph /  16.1 km/h 10 mph /  16.1 km/h 84 % 0 in /  0.0 mm
07:48 49.8 °F /  9.9 °C 45.3 °F /  7.4 °C 30.2 in /  1023.9 hPa North 8.1 mph /  13.0 km/h 8.1 mph /  13.0 km/h 84 % 0 in /  0.0 mm
07:53 49.8 °F /  9.9 °C 45.3 °F /  7.4 °C 30.2 in /  1023.9 hPa North 8.1 mph /  13.0 km/h 8.1 mph /  13.0 km/h 84 % 0 in /  0.0 mm
07:58 50 °F /  10.0 °C 45.3 °F /  7.4 °C 30.2 in /  1023.9 hPa North 10 mph /  16.1 km/h 10 mph /  16.1 km/h 84 % 0 in /  0.0 mm
08:03 50 °F /  10.0 °C 45.3 °F /  7.4 °C 30.3 in /  1024.3 hPa NNW 10.4 mph /  16.7 km/h 10.4 mph /  16.7 km/h 84 % 0 in /  0.0 mm
08:08 50 °F /  10.0 °C 45.3 °F /  7.4 °C 30.3 in /  1024.3 hPa North 8.1 mph /  13.0 km/h 8.1 mph /  13.0 km/h 84 % 0 in /  0.0 mm
08:13 50 °F /  10.0 °C 45.3 °F /  7.4 °C 30.3 in /  1024.3 hPa North 9.2 mph /  14.8 km/h 9.2 mph /  14.8 km/h 84 % 0 in /  0.0 mm
08:18 49.8 °F /  9.9 °C 45.3 °F /  7.4 °C 30.3 in /  1024.3 hPa NNW 9.2 mph /  14.8 km/h 9.2 mph /  14.8 km/h 84 % 0 in /  0.0 mm
08:23 49.8 °F /  9.9 °C 45.3 °F /  7.4 °C 30.3 in /  1024.3 hPa NNW 10.4 mph /  16.7 km/h 10.4 mph /  16.7 km/h 84 % 0 in /  0.0 mm
08:28 49.8 °F /  9.9 °C 45.3 °F /  7.4 °C 30.3 in /  1024.3 hPa North 10.4 mph /  16.7 km/h 10.4 mph /  16.7 km/h 84 % 0 in /  0.0 mm
08:33 49.8 °F /  9.9 °C 45.3 °F /  7.4 °C 30.3 in /  1024.3 hPa NNW 10.4 mph /  16.7 km/h 10.4 mph /  16.7 km/h 84 % 0 in /  0.0 mm
08:38 49.8 °F /  9.9 °C 45.3 °F /  7.4 °C 30.3 in /  1024.3 hPa North 10.4 mph /  16.7 km/h 10.4 mph /  16.7 km/h 84 % 0 in /  0.0 mm
08:43 50 °F /  10.0 °C 45.3 °F /  7.4 °C 30.3 in /  1024.3 hPa NNW 9.2 mph /  14.8 km/h 9.2 mph /  14.8 km/h 84 % 0 in /  0.0 mm
08:48 50.2 °F /  10.1 °C 45.5 °F /  7.5 °C 30.3 in /  1024.3 hPa NNW 9.2 mph /  14.8 km/h 9.2 mph /  14.8 km/h 84 % 0 in /  0.0 mm
08:53 50.2 °F /  10.1 °C 45.5 °F /  7.5 °C 30.3 in /  1024.3 hPa North 10.4 mph /  16.7 km/h 10.4 mph /  16.7 km/h 84 % 0 in /  0.0 mm
08:58 50.2 °F /  10.1 °C 45.7 °F /  7.6 °C 30.3 in /  1024.3 hPa North 9.2 mph /  14.8 km/h 9.2 mph /  14.8 km/h 84 % 0 in /  0.0 mm
09:03 50.2 °F /  10.1 °C 45.7 °F /  7.6 °C 30.3 in /  1024.6 hPa North 10.4 mph /  16.7 km/h 10.4 mph /  16.7 km/h 84 % 0 in /  0.0 mm
09:08 50.4 °F /  10.2 °C 45.7 °F /  7.6 °C 30.3 in /  1024.6 hPa North 10.4 mph /  16.7 km/h 10.4 mph /  16.7 km/h 84 % 0 in /  0.0 mm
09:13 50.4 °F /  10.2 °C 45.7 °F /  7.6 °C 30.3 in /  1024.6 hPa NNW 10.4 mph /  16.7 km/h 10.4 mph /  16.7 km/h 84 % 0 in /  0.0 mm
09:18 50.5 °F /  10.3 °C 45.9 °F /  7.7 °C 30.3 in /  1024.6 hPa North 8.1 mph /  13.0 km/h 8.1 mph /  13.0 km/h 84 % 0 in /  0.0 mm
09:23 50.5 °F /  10.3 °C 45.9 °F /  7.7 °C 30.3 in /  1024.6 hPa NNW 8 mph /  12.9 km/h 8 mph /  12.9 km/h 84 % 0 in /  0.0 mm
09:28 50.7 °F /  10.4 °C 46 °F /  7.8 °C 30.3 in /  1024.6 hPa North 9.2 mph /  14.8 km/h 9.2 mph /  14.8 km/h 84 % 0 in /  0.0 mm
09:33 51.1 °F /  10.6 °C 46 °F /  7.8 °C 30.3 in /  1024.6 hPa NNW 8.1 mph /  13.0 km/h 8.1 mph /  13.0 km/h 83 % 0 in /  0.0 mm
09:38 51.1 °F /  10.6 °C 46 °F /  7.8 °C 30.3 in /  1024.9 hPa North 7 mph /  11.3 km/h 7 mph /  11.3 km/h 83 % 0 in /  0.0 mm
09:43 51.3 °F /  10.7 °C 46.2 °F /  7.9 °C 30.3 in /  1024.9 hPa NNW 8.1 mph /  13.0 km/h 8.1 mph /  13.0 km/h 83 % 0 in /  0.0 mm
09:48 51.4 °F /  10.8 °C 46.4 °F /  8.0 °C 30.3 in /  1024.9 hPa North 8.1 mph /  13.0 km/h 8.1 mph /  13.0 km/h 83 % 0 in /  0.0 mm
09:53 51.4 °F /  10.8 °C 46.6 °F /  8.1 °C 30.3 in /  1024.9 hPa North 8.1 mph /  13.0 km/h 8.1 mph /  13.0 km/h 83 % 0 in /  0.0 mm
09:58 51.8 °F /  11.0 °C 46.8 °F /  8.2 °C 30.3 in /  1025.3 hPa North 8.1 mph /  13.0 km/h 8.1 mph /  13.0 km/h 83 % 0 in /  0.0 mm
10:03 52 °F /  11.1 °C 46.9 °F /  8.3 °C 30.3 in /  1025.3 hPa North 5.8 mph /  9.3 km/h 5.8 mph /  9.3 km/h 83 % 0 in /  0.0 mm
10:08 52.2 °F /  11.2 °C 47.1 °F /  8.4 °C 30.3 in /  1025.3 hPa North 9.2 mph /  14.8 km/h 9.2 mph /  14.8 km/h 83 % 0 in /  0.0 mm
10:13 52.3 °F /  11.3 °C 47.1 °F /  8.4 °C 30.3 in /  1025.3 hPa North 6 mph /  9.7 km/h 6 mph /  9.7 km/h 82 % 0 in /  0.0 mm
10:18 52.5 °F /  11.4 °C 47.1 °F /  8.4 °C 30.3 in /  1025.3 hPa NNW 7 mph /  11.3 km/h 7 mph /  11.3 km/h 82 % 0 in /  0.0 mm
10:23 52.7 °F /  11.5 °C 47.5 °F /  8.6 °C 30.3 in /  1025.3 hPa North 8.1 mph /  13.0 km/h 8.1 mph /  13.0 km/h 82 % 0 in /  0.0 mm
10:28 53.1 °F /  11.7 °C 47.7 °F /  8.7 °C 30.3 in /  1025.6 hPa NNW 5.8 mph /  9.3 km/h 5.8 mph /  9.3 km/h 82 % 0 in /  0.0 mm
10:33 53.2 °F /  11.8 °C 47.8 °F /  8.8 °C 30.3 in /  1025.6 hPa North 8.1 mph /  13.0 km/h 8.1 mph /  13.0 km/h 82 % 0 in /  0.0 mm
10:38 53.4 °F /  11.9 °C 47.8 °F /  8.8 °C 30.3 in /  1025.6 hPa North 5.8 mph /  9.3 km/h 5.8 mph /  9.3 km/h 81 % 0 in /  0.0 mm
10:43 54 °F /  12.2 °C 48.2 °F /  9.0 °C 30.3 in /  1025.6 hPa North 5 mph /  8.0 km/h 5 mph /  8.0 km/h 81 % 0 in /  0.0 mm
10:48 54.1 °F /  12.3 °C 48.6 °F /  9.2 °C 30.3 in /  1026.0 hPa NNW 4.6 mph /  7.4 km/h 4.6 mph /  7.4 km/h 81 % 0 in /  0.0 mm
10:53 54.7 °F /  12.6 °C 48.9 °F /  9.4 °C 30.3 in /  1026.0 hPa North 4.6 mph /  7.4 km/h 4.6 mph /  7.4 km/h 81 % 0 in /  0.0 mm
10:58 55 °F /  12.8 °C 49.5 °F /  9.7 °C 30.3 in /  1026.0 hPa North 4.6 mph /  7.4 km/h 4.6 mph /  7.4 km/h 81 % 0 in /  0.0 mm
11:03 55.6 °F /  13.1 °C 49.5 °F /  9.7 °C 30.3 in /  1026.0 hPa North 3.5 mph /  5.6 km/h 3.5 mph /  5.6 km/h 80 % 0 in /  0.0 mm
11:08 55.9 °F /  13.3 °C 49.8 °F /  9.9 °C 30.3 in /  1026.0 hPa North 3.5 mph /  5.6 km/h 3.5 mph /  5.6 km/h 80 % 0 in /  0.0 mm
11:13 56.7 °F /  13.7 °C 50.2 °F /  10.1 °C 30.3 in /  1026.0 hPa North 2.3 mph /  3.7 km/h 2.3 mph /  3.7 km/h 79 % 0 in /  0.0 mm
11:18 57 °F /  13.9 °C 50.5 °F /  10.3 °C 30.3 in /  1026.0 hPa North 1.2 mph /  1.9 km/h   79 % 0 in /  0.0 mm
11:23 57.7 °F /  14.3 °C 51.3 °F /  10.7 °C 30.3 in /  1026.0 hPa Calm     79 % 0 in /  0.0 mm
11:28 58.5 °F /  14.7 °C 51.6 °F /  10.9 °C 30.3 in /  1026.0 hPa Calm     78 % 0 in /  0.0 mm
11:33 58.8 °F /  14.9 °C 51.6 °F /  10.9 °C 30.3 in /  1026.0 hPa Calm     77 % 0 in /  0.0 mm
11:38 59.2 °F /  15.1 °C 51.6 °F /  10.9 °C 30.3 in /  1026.0 hPa WSW 3.5 mph /  5.6 km/h 3.5 mph /  5.6 km/h 76 % 0 in /  0.0 mm
11:43 59.4 °F /  15.2 °C 51.8 °F /  11.0 °C 30.3 in /  1026.0 hPa WSW 3.5 mph /  5.6 km/h 3.5 mph /  5.6 km/h 76 % 0 in /  0.0 mm
11:48 59.5 °F /  15.3 °C 52 °F /  11.1 °C 30.3 in /  1026.0 hPa WSW 3.5 mph /  5.6 km/h 3.5 mph /  5.6 km/h 76 % 0 in /  0.0 mm
11:53 59.4 °F /  15.2 °C 51.4 °F /  10.8 °C 30.3 in /  1026.0 hPa SW 4.6 mph /  7.4 km/h 4.6 mph /  7.4 km/h 75 % 0 in /  0.0 mm
11:59 59.4 °F /  15.2 °C 51.4 °F /  10.8 °C 30.3 in /  1026.0 hPa WSW 4.6 mph /  7.4 km/h 4.6 mph /  7.4 km/h 75 % 0 in /  0.0 mm
12:04 59.2 °F /  15.1 °C 51.3 °F /  10.7 °C 30.3 in /  1026.0 hPa WSW 4.6 mph /  7.4 km/h 4.6 mph /  7.4 km/h 75 % 0 in /  0.0 mm
12:09 59.2 °F /  15.1 °C 51.4 °F /  10.8 °C 30.3 in /  1026.0 hPa WSW 5.8 mph /  9.3 km/h 5.8 mph /  9.3 km/h 76 % 0 in /  0.0 mm
12:14 59.2 °F /  15.1 °C 51.4 °F /  10.8 °C 30.3 in /  1026.0 hPa WSW 5 mph /  8.0 km/h 5 mph /  8.0 km/h 76 % 0 in /  0.0 mm
12:19 59.2 °F /  15.1 °C 52 °F /  11.1 °C 30.3 in /  1026.0 hPa WSW 5 mph /  8.0 km/h 5 mph /  8.0 km/h 77 % 0 in /  0.0 mm
12:24 59 °F /  15.0 °C 51.8 °F /  11.0 °C 30.3 in /  1026.0 hPa SW 7 mph /  11.3 km/h 7 mph /  11.3 km/h 77 % 0 in /  0.0 mm
12:29 58.8 °F /  14.9 °C 51.6 °F /  10.9 °C 30.3 in /  1025.6 hPa WSW 5.8 mph /  9.3 km/h 5.8 mph /  9.3 km/h 77 % 0 in /  0.0 mm
12:34 59 °F /  15.0 °C 52.2 °F /  11.2 °C 30.3 in /  1025.6 hPa WSW 5 mph /  8.0 km/h 5 mph /  8.0 km/h 78 % 0 in /  0.0 mm
12:39 58.8 °F /  14.9 °C 51.6 °F /  10.9 °C 30.3 in /  1025.6 hPa WSW 5.8 mph /  9.3 km/h 5.8 mph /  9.3 km/h 77 % 0 in /  0.0 mm
12:44 58.8 °F /  14.9 °C 51.6 °F /  10.9 °C 30.3 in /  1025.6 hPa WSW 5.8 mph /  9.3 km/h 5.8 mph /  9.3 km/h 77 % 0 in /  0.0 mm
12:49 58.8 °F /  14.9 °C 51.6 °F /  10.9 °C 30.3 in /  1025.6 hPa WSW 6.9 mph /  11.1 km/h 6.9 mph /  11.1 km/h 77 % 0 in /  0.0 mm
12:54 59 °F /  15.0 °C 51.8 °F /  11.0 °C 30.3 in /  1025.6 hPa WSW 5.8 mph /  9.3 km/h 5.8 mph /  9.3 km/h 77 % 0 in /  0.0 mm
12:59 59 °F /  15.0 °C 51.8 °F /  11.0 °C 30.3 in /  1025.3 hPa WSW 4.6 mph /  7.4 km/h 4.6 mph /  7.4 km/h 77 % 0 in /  0.0 mm
13:04 59 °F /  15.0 °C 51.8 °F /  11.0 °C 30.3 in /  1025.3 hPa WSW 5.8 mph /  9.3 km/h 5.8 mph /  9.3 km/h 77 % 0 in /  0.0 mm
13:09 59 °F /  15.0 °C 51.8 °F /  11.0 °C 30.3 in /  1025.3 hPa SW 6 mph /  9.7 km/h 6 mph /  9.7 km/h 77 % 0 in /  0.0 mm
13:14 58.8 °F /  14.9 °C 52.2 °F /  11.2 °C 30.3 in /  1025.3 hPa WSW 8.1 mph /  13.0 km/h 8.1 mph /  13.0 km/h 78 % 0 in /  0.0 mm
13:19 58.8 °F /  14.9 °C 52.2 °F /  11.2 °C 30.3 in /  1024.9 hPa WSW 6.9 mph /  11.1 km/h 6.9 mph /  11.1 km/h 78 % 0 in /  0.0 mm
13:24 58.8 °F /  14.9 °C 52.2 °F /  11.2 °C 30.3 in /  1024.9 hPa WSW 6.9 mph /  11.1 km/h 6.9 mph /  11.1 km/h 78 % 0 in /  0.0 mm
13:29 58.8 °F /  14.9 °C 52.3 °F /  11.3 °C 30.3 in /  1024.9 hPa WSW 8.1 mph /  13.0 km/h 8.1 mph /  13.0 km/h 79 % 0 in /  0.0 mm
13:34 59 °F /  15.0 °C 52.5 °F /  11.4 °C 30.3 in /  1024.9 hPa WSW 8.1 mph /  13.0 km/h 8.1 mph /  13.0 km/h 79 % 0 in /  0.0 mm
13:39 59 °F /  15.0 °C 52.5 °F /  11.4 °C 30.3 in /  1024.9 hPa WSW 9.2 mph /  14.8 km/h 9.2 mph /  14.8 km/h 79 % 0 in /  0.0 mm
13:44 59 °F /  15.0 °C 52.5 °F /  11.4 °C 30.3 in /  1024.9 hPa WSW 6.9 mph /  11.1 km/h 6.9 mph /  11.1 km/h 79 % 0 in /  0.0 mm
13:49 59 °F /  15.0 °C 52.5 °F /  11.4 °C 30.3 in /  1024.9 hPa West 8.1 mph /  13.0 km/h 8.1 mph /  13.0 km/h 79 % 0 in /  0.0 mm
13:54 59 °F /  15.0 °C 52.5 °F /  11.4 °C 30.3 in /  1024.9 hPa WSW 9 mph /  14.5 km/h 9 mph /  14.5 km/h 79 % 0 in /  0.0 mm
13:59 59.2 °F /  15.1 °C 52.5 °F /  11.4 °C 30.3 in /  1024.9 hPa WSW 8.1 mph /  13.0 km/h 8.1 mph /  13.0 km/h 79 % 0 in /  0.0 mm
14:04 59.2 °F /  15.1 °C 52.7 °F /  11.5 °C 30.3 in /  1024.6 hPa WSW 6.9 mph /  11.1 km/h 6.9 mph /  11.1 km/h 79 % 0 in /  0.0 mm
14:09 59.4 °F /  15.2 °C 52.9 °F /  11.6 °C 30.3 in /  1024.6 hPa WSW 8.1 mph /  13.0 km/h 8.1 mph /  13.0 km/h 79 % 0 in /  0.0 mm
14:14 59.4 °F /  15.2 °C 52.9 °F /  11.6 °C 30.3 in /  1024.6 hPa West 8.1 mph /  13.0 km/h 8.1 mph /  13.0 km/h 79 % 0 in /  0.0 mm
14:19 59.4 °F /  15.2 °C 52.9 °F /  11.6 °C 30.3 in /  1024.6 hPa WSW 8.1 mph /  13.0 km/h 8.1 mph /  13.0 km/h 79 % 0 in /  0.0 mm
14:24 59.4 °F /  15.2 °C 52.9 °F /  11.6 °C 30.3 in /  1024.6 hPa WSW 6.9 mph /  11.1 km/h 6.9 mph /  11.1 km/h 79 % 0 in /  0.0 mm
14:29 59.4 °F /  15.2 °C 52.9 °F /  11.6 °C 30.3 in /  1024.6 hPa WSW 6.9 mph /  11.1 km/h 6.9 mph /  11.1 km/h 79 % 0 in /  0.0 mm
14:34 59.4 °F /  15.2 °C 52.9 °F /  11.6 °C 30.3 in /  1024.6 hPa WSW 10.4 mph /  16.7 km/h 10.4 mph /  16.7 km/h 79 % 0 in /  0.0 mm
14:39 59.4 °F /  15.2 °C 52.9 °F /  11.6 °C 30.3 in /  1024.3 hPa WSW 8.1 mph /  13.0 km/h 8.1 mph /  13.0 km/h 79 % 0 in /  0.0 mm
14:44 59.7 °F /  15.4 °C 53.4 °F /  11.9 °C 30.3 in /  1024.3 hPa WSW 6.9 mph /  11.1 km/h 6.9 mph /  11.1 km/h 80 % 0 in /  0.0 mm
14:49 59.9 °F /  15.5 °C 53.4 °F /  11.9 °C 30.3 in /  1024.3 hPa WSW 8.1 mph /  13.0 km/h 8.1 mph /  13.0 km/h 79 % 0 in /  0.0 mm
14:54 59.7 °F /  15.4 °C 53.2 °F /  11.8 °C 30.3 in /  1024.3 hPa WSW 6.9 mph /  11.1 km/h 6.9 mph /  11.1 km/h 79 % 0 in /  0.0 mm
14:59 59.7 °F /  15.4 °C 53.2 °F /  11.8 °C 30.3 in /  1024.3 hPa SW 6 mph /  9.7 km/h 6 mph /  9.7 km/h 79 % 0 in /  0.0 mm
15:04 59.7 °F /  15.4 °C 53.2 °F /  11.8 °C 30.3 in /  1024.3 hPa SW 6.9 mph /  11.1 km/h 6.9 mph /  11.1 km/h 79 % 0 in /  0.0 mm
15:09 59.7 °F /  15.4 °C 53.6 °F /  12.0 °C 30.3 in /  1024.3 hPa WSW 5.8 mph /  9.3 km/h 5.8 mph /  9.3 km/h 80 % 0 in /  0.0 mm
15:14 59.7 °F /  15.4 °C 53.6 °F /  12.0 °C 30.3 in /  1024.3 hPa WSW 8.1 mph /  13.0 km/h 8.1 mph /  13.0 km/h 80 % 0 in /  0.0 mm
15:19 59.7 °F /  15.4 °C 53.6 °F /  12.0 °C 30.3 in /  1024.3 hPa WSW 6.9 mph /  11.1 km/h 6.9 mph /  11.1 km/h 80 % 0 in /  0.0 mm
15:24 59.9 °F /  15.5 °C 53.8 °F /  12.1 °C 30.3 in /  1024.3 hPa WSW 6.9 mph /  11.1 km/h 6.9 mph /  11.1 km/h 80 % 0 in /  0.0 mm
15:29 60.1 °F /  15.6 °C 53.8 °F /  12.1 °C 30.3 in /  1024.6 hPa WSW 7 mph /  11.3 km/h 7 mph /  11.3 km/h 80 % 0 in /  0.0 mm
15:34 60.1 °F /  15.6 °C 53.8 °F /  12.1 °C 30.3 in /  1024.3 hPa WSW 8.1 mph /  13.0 km/h 8.1 mph /  13.0 km/h 80 % 0 in /  0.0 mm
15:39 60.1 °F /  15.6 °C 53.8 °F /  12.1 °C 30.3 in /  1024.3 hPa WSW 5.8 mph /  9.3 km/h 5.8 mph /  9.3 km/h 80 % 0 in /  0.0 mm
15:44 60.1 °F /  15.6 °C 53.8 °F /  12.1 °C 30.3 in /  1024.3 hPa WSW 4.6 mph /  7.4 km/h 4.6 mph /  7.4 km/h 80 % 0 in /  0.0 mm
15:49 60.1 °F /  15.6 °C 53.8 °F /  12.1 °C 30.3 in /  1024.3 hPa WSW 4.6 mph /  7.4 km/h 4.6 mph /  7.4 km/h 80 % 0 in /  0.0 mm
15:54 60.1 °F /  15.6 °C 54 °F /  12.2 °C 30.3 in /  1024.3 hPa WSW 5.8 mph /  9.3 km/h 5.8 mph /  9.3 km/h 80 % 0 in /  0.0 mm
15:59 60.3 °F /  15.7 °C 53.8 °F /  12.1 °C 30.3 in /  1024.3 hPa WSW 6 mph /  9.7 km/h 6 mph /  9.7 km/h 79 % 0 in /  0.0 mm
16:04 60.3 °F /  15.7 °C 53.8 °F /  12.1 °C 30.3 in /  1024.3 hPa WSW 4 mph /  6.4 km/h 4 mph /  6.4 km/h 79 % 0 in /  0.0 mm
16:09 60.3 °F /  15.7 °C 53.8 °F /  12.1 °C 30.3 in /  1024.6 hPa WSW 5.8 mph /  9.3 km/h 5.8 mph /  9.3 km/h 79 % 0 in /  0.0 mm
16:14 60.4 °F /  15.8 °C 54 °F /  12.2 °C 30.3 in /  1024.6 hPa WSW 5 mph /  8.0 km/h 5 mph /  8.0 km/h 79 % 0 in /  0.0 mm
16:19 60.4 °F /  15.8 °C 54 °F /  12.2 °C 30.3 in /  1024.6 hPa WSW 4.6 mph /  7.4 km/h 4.6 mph /  7.4 km/h 79 % 0 in /  0.0 mm
16:24 60.4 °F /  15.8 °C 54 °F /  12.2 °C 30.3 in /  1024.6 hPa WSW 4.6 mph /  7.4 km/h 4.6 mph /  7.4 km/h 79 % 0 in /  0.0 mm
16:29 60.4 °F /  15.8 °C 54 °F /  12.2 °C 30.3 in /  1024.6 hPa WSW 5 mph /  8.0 km/h 5 mph /  8.0 km/h 79 % 0 in /  0.0 mm
16:34 60.4 °F /  15.8 °C 54 °F /  12.2 °C 30.3 in /  1024.6 hPa WSW 3.5 mph /  5.6 km/h 3.5 mph /  5.6 km/h 79 % 0 in /  0.0 mm
16:39 60.6 °F /  15.9 °C 53.8 °F /  12.1 °C 30.3 in /  1024.6 hPa WSW 3.5 mph /  5.6 km/h 3.5 mph /  5.6 km/h 78 % 0 in /  0.0 mm
16:44 60.6 °F /  15.9 °C 54 °F /  12.2 °C 30.3 in /  1024.6 hPa WSW 4 mph /  6.4 km/h 4 mph /  6.4 km/h 79 % 0 in /  0.0 mm
16:49 60.6 °F /  15.9 °C 54.1 °F /  12.3 °C 30.3 in /  1024.6 hPa WSW 3.5 mph /  5.6 km/h 3.5 mph /  5.6 km/h 79 % 0 in /  0.0 mm
16:54 60.6 °F /  15.9 °C 54.1 °F /  12.3 °C 30.3 in /  1024.6 hPa North 4 mph /  6.4 km/h 4 mph /  6.4 km/h 79 % 0 in /  0.0 mm
16:59 60.6 °F /  15.9 °C 54.1 °F /  12.3 °C 30.3 in /  1024.6 hPa WSW 3.5 mph /  5.6 km/h 3.5 mph /  5.6 km/h 79 % 0 in /  0.0 mm
17:04 60.6 °F /  15.9 °C 54.5 °F /  12.5 °C 30.3 in /  1024.6 hPa WSW 4.6 mph /  7.4 km/h 4.6 mph /  7.4 km/h 80 % 0 in /  0.0 mm
17:09 60.6 °F /  15.9 °C 54.5 °F /  12.5 °C 30.3 in /  1024.6 hPa WSW 3.5 mph /  5.6 km/h 3.5 mph /  5.6 km/h 80 % 0 in /  0.0 mm
17:14 60.6 °F /  15.9 °C 54.3 °F /  12.4 °C 30.3 in /  1024.6 hPa WSW 4 mph /  6.4 km/h 4 mph /  6.4 km/h 80 % 0 in /  0.0 mm
17:19 60.4 °F /  15.8 °C 54.3 °F /  12.4 °C 30.3 in /  1024.6 hPa WSW 4.6 mph /  7.4 km/h 4.6 mph /  7.4 km/h 80 % 0 in /  0.0 mm
17:24 60.4 °F /  15.8 °C 54.1 °F /  12.3 °C 30.3 in /  1024.6 hPa WSW 3 mph /  4.8 km/h 3 mph /  4.8 km/h 80 % 0 in /  0.0 mm
17:29 60.3 °F /  15.7 °C 54.1 °F /  12.3 °C 30.3 in /  1024.6 hPa WSW 3.5 mph /  5.6 km/h 3.5 mph /  5.6 km/h 80 % 0 in /  0.0 mm
17:34 60.3 °F /  15.7 °C 54.3 °F /  12.4 °C 30.3 in /  1024.6 hPa WSW 1 mph /  1.6 km/h 1 mph /  1.6 km/h 81 % 0 in /  0.0 mm
17:39 60.3 °F /  15.7 °C 54.3 °F /  12.4 °C 30.3 in /  1024.6 hPa WSW 3.5 mph /  5.6 km/h 3.5 mph /  5.6 km/h 81 % 0 in /  0.0 mm
17:44 60.1 °F /  15.6 °C 54.1 °F /  12.3 °C 30.3 in /  1024.6 hPa WSW 3.5 mph /  5.6 km/h 3.5 mph /  5.6 km/h 81 % 0 in /  0.0 mm
17:49 60.1 °F /  15.6 °C 54.1 °F /  12.3 °C 30.3 in /  1024.6 hPa WSW 3.5 mph /  5.6 km/h 3.5 mph /  5.6 km/h 81 % 0 in /  0.0 mm
17:54 60.1 °F /  15.6 °C 54.1 °F /  12.3 °C 30.3 in /  1024.9 hPa WSW 2.3 mph /  3.7 km/h 2.3 mph /  3.7 km/h 81 % 0 in /  0.0 mm
18:00 59.9 °F /  15.5 °C 54.3 °F /  12.4 °C 30.3 in /  1024.9 hPa WSW 3.5 mph /  5.6 km/h 3.5 mph /  5.6 km/h 82 % 0 in /  0.0 mm
18:05 59.7 °F /  15.4 °C 54.3 °F /  12.4 °C 30.3 in /  1024.9 hPa WSW 3.5 mph /  5.6 km/h 3.5 mph /  5.6 km/h 82 % 0 in /  0.0 mm
18:10 59.7 °F /  15.4 °C 54.3 °F /  12.4 °C 30.3 in /  1024.9 hPa WSW 3.5 mph /  5.6 km/h 3.5 mph /  5.6 km/h 82 % 0 in /  0.0 mm
18:15 59.7 °F /  15.4 °C 54.1 °F /  12.3 °C 30.3 in /  1024.9 hPa WSW 2.3 mph /  3.7 km/h 2.3 mph /  3.7 km/h 82 % 0 in /  0.0 mm
18:20 59.5 °F /  15.3 °C 54.1 °F /  12.3 °C 30.3 in /  1024.9 hPa Calm     82 % 0 in /  0.0 mm
18:25 59.5 °F /  15.3 °C 54.3 °F /  12.4 °C 30.3 in /  1024.9 hPa Calm     83 % 0 in /  0.0 mm
18:30 59.5 °F /  15.3 °C 54.3 °F /  12.4 °C 30.3 in /  1024.9 hPa Calm     83 % 0 in /  0.0 mm
18:35 59.4 °F /  15.2 °C 54 °F /  12.2 °C 30.3 in /  1024.9 hPa Calm     82 % 0 in /  0.0 mm
18:40 59.2 °F /  15.1 °C 53.6 °F /  12.0 °C 30.3 in /  1024.9 hPa WSW 3 mph /  4.8 km/h 3 mph /  4.8 km/h 82 % 0 in /  0.0 mm
18:45 58.6 °F /  14.8 °C 53.4 °F /  11.9 °C 30.3 in /  1024.9 hPa NW 3.5 mph /  5.6 km/h 3.5 mph /  5.6 km/h 83 % 0 in /  0.0 mm
18:50 58.3 °F /  14.6 °C 53.1 °F /  11.7 °C 30.3 in /  1024.9 hPa NW 2 mph /  3.2 km/h 4 mph /  6.4 km/h 83 % 0 in /  0.0 mm
18:55 57.9 °F /  14.4 °C 53.2 °F /  11.8 °C 30.3 in /  1024.9 hPa Calm   3 mph /  4.8 km/h 84 % 0 in /  0.0 mm
19:00 57.7 °F /  14.3 °C 53.1 °F /  11.7 °C 30.3 in /  1024.9 hPa Calm     84 % 0 in /  0.0 mm
19:05 57.7 °F /  14.3 °C 53.2 °F /  11.8 °C 30.3 in /  1024.9 hPa Calm     85 % 0 in /  0.0 mm
19:10 57.7 °F /  14.3 °C 53.2 °F /  11.8 °C 30.3 in /  1024.9 hPa NNW 4 mph /  6.4 km/h 4.5 mph /  7.2 km/h 85 % 0 in /  0.0 mm
19:15 57.6 °F /  14.2 °C 53.1 °F /  11.7 °C 30.3 in /  1024.9 hPa NNW 2 mph /  3.2 km/h 5 mph /  8.0 km/h 85 % 0 in /  0.0 mm
19:20 57.4 °F /  14.1 °C 52.9 °F /  11.6 °C 30.3 in /  1025.3 hPa North 4.6 mph /  7.4 km/h 4.6 mph /  7.4 km/h 85 % 0 in /  0.0 mm
19:25 57.2 °F /  14.0 °C 52.7 °F /  11.5 °C 30.3 in /  1025.3 hPa North 3 mph /  4.8 km/h 5 mph /  8.0 km/h 85 % 0 in /  0.0 mm
19:30 57.2 °F /  14.0 °C 53.1 °F /  11.7 °C 30.3 in /  1025.3 hPa NNW 3.5 mph /  5.6 km/h   86 % 0 in /  0.0 mm
19:35 57.2 °F /  14.0 °C 53.1 °F /  11.7 °C 30.3 in /  1025.3 hPa Calm     86 % 0 in /  0.0 mm
19:40 57.2 °F /  14.0 °C 53.1 °F /  11.7 °C 30.3 in /  1025.3 hPa Calm     86 % 0 in /  0.0 mm
19:45 57 °F /  13.9 °C 52.5 °F /  11.4 °C 30.3 in /  1025.3 hPa North 3.5 mph /  5.6 km/h 3.5 mph /  5.6 km/h 85 % 0 in /  0.0 mm
19:50 56.8 °F /  13.8 °C 52.3 °F /  11.3 °C 30.3 in /  1025.3 hPa North 3.5 mph /  5.6 km/h 3.5 mph /  5.6 km/h 85 % 0 in /  0.0 mm
19:55 56.8 °F /  13.8 °C 52.3 °F /  11.3 °C 30.3 in /  1025.3 hPa North 4.6 mph /  7.4 km/h 4.6 mph /  7.4 km/h 85 % 0 in /  0.0 mm
20:00 56.7 °F /  13.7 °C 52.2 °F /  11.2 °C 30.3 in /  1025.3 hPa North 3 mph /  4.8 km/h 5 mph /  8.0 km/h 85 % 0 in /  0.0 mm
20:05 56.7 °F /  13.7 °C 52.2 °F /  11.2 °C 30.3 in /  1025.6 hPa Calm     85 % 0 in /  0.0 mm
20:10 56.5 °F /  13.6 °C 52 °F /  11.1 °C 30.3 in /  1025.6 hPa Calm     85 % 0 in /  0.0 mm
20:15 56.5 °F /  13.6 °C 52 °F /  11.1 °C 30.3 in /  1025.6 hPa NNW 4.6 mph /  7.4 km/h 4.6 mph /  7.4 km/h 85 % 0 in /  0.0 mm
20:20 56.5 °F /  13.6 °C 51.6 °F /  10.9 °C 30.3 in /  1025.6 hPa Calm   4 mph /  6.4 km/h 84 % 0 in /  0.0 mm
20:25 56.5 °F /  13.6 °C 51.6 °F /  10.9 °C 30.3 in /  1025.6 hPa NNW 5 mph /  8.0 km/h 5 mph /  8.0 km/h 84 % 0 in /  0.0 mm
20:30 56.1 °F /  13.4 °C 51.1 °F /  10.6 °C 30.3 in /  1025.6 hPa NNW 5 mph /  8.0 km/h 7 mph /  11.3 km/h 83 % 0 in /  0.0 mm
20:35 56.1 °F /  13.4 °C 51.1 °F /  10.6 °C 30.3 in /  1025.6 hPa NNW 3 mph /  4.8 km/h 7 mph /  11.3 km/h 83 % 0 in /  0.0 mm
20:40 56.1 °F /  13.4 °C 50.7 °F /  10.4 °C 30.3 in /  1025.6 hPa North 6.9 mph /  11.1 km/h 6.9 mph /  11.1 km/h 82 % 0 in /  0.0 mm
20:45 56.1 °F /  13.4 °C 50.4 °F /  10.2 °C 30.3 in /  1025.6 hPa North 5 mph /  8.0 km/h 8 mph /  12.9 km/h 81 % 0 in /  0.0 mm
20:50 56.1 °F /  13.4 °C 50.4 °F /  10.2 °C 30.3 in /  1026.0 hPa NNW 6.9 mph /  11.1 km/h 6.9 mph /  11.1 km/h 81 % 0 in /  0.0 mm
20:55 56.1 °F /  13.4 °C 50 °F /  10.0 °C 30.3 in /  1026.0 hPa NNW 5 mph /  8.0 km/h 6 mph /  9.7 km/h 80 % 0 in /  0.0 mm
21:00 56.1 °F /  13.4 °C 50.2 °F /  10.1 °C 30.3 in /  1026.0 hPa NNW 4.6 mph /  7.4 km/h 4.6 mph /  7.4 km/h 80 % 0 in /  0.0 mm
21:05 56.1 °F /  13.4 °C 49.8 °F /  9.9 °C 30.3 in /  1026.0 hPa North 6.9 mph /  11.1 km/h 6.9 mph /  11.1 km/h 79 % 0 in /  0.0 mm
21:10 56.3 °F /  13.5 °C 49.5 °F /  9.7 °C 30.3 in /  1026.0 hPa North 6.9 mph /  11.1 km/h 6.9 mph /  11.1 km/h 78 % 0 in /  0.0 mm
21:15 56.1 °F /  13.4 °C 49.5 °F /  9.7 °C 30.3 in /  1026.0 hPa North 5 mph /  8.0 km/h 6 mph /  9.7 km/h 78 % 0 in /  0.0 mm
21:16 56.1 °F /  13.4 °C 49.1 °F /  9.5 °C 30.3 in /  1026.0 hPa North 5.8 mph /  9.3 km/h 5.8 mph /  9.3 km/h 77 % 0 in /  0.0 mm
21:21 56.1 °F /  13.4 °C 48.9 °F /  9.4 °C 30.3 in /  1026.0 hPa North 6.9 mph /  11.1 km/h 6.9 mph /  11.1 km/h 77 % 0 in /  0.0 mm
21:26 55.9 °F /  13.3 °C 48.9 °F /  9.4 °C 30.3 in /  1026.0 hPa NNW 5.8 mph /  9.3 km/h 5.8 mph /  9.3 km/h 77 % 0 in /  0.0 mm
21:31 55.9 °F /  13.3 °C 48.7 °F /  9.3 °C 30.3 in /  1026.0 hPa North 4.6 mph /  7.4 km/h 4.6 mph /  7.4 km/h 77 % 0 in /  0.0 mm
21:36 55.8 °F /  13.2 °C 48.7 °F /  9.3 °C 30.3 in /  1026.0 hPa North 6 mph /  9.7 km/h 6 mph /  9.7 km/h 77 % 0 in /  0.0 mm
21:41 55.8 °F /  13.2 °C 48.6 °F /  9.2 °C 30.3 in /  1026.0 hPa North 5.8 mph /  9.3 km/h 5.8 mph /  9.3 km/h 77 % 0 in /  0.0 mm
21:46 55.6 °F /  13.1 °C 48.6 °F /  9.2 °C 30.3 in /  1026.0 hPa North 5.8 mph /  9.3 km/h 5.8 mph /  9.3 km/h 77 % 0 in /  0.0 mm
21:51 55.4 °F /  13.0 °C 48.4 °F /  9.1 °C 30.3 in /  1026.0 hPa North 7 mph /  11.3 km/h 7 mph /  11.3 km/h 77 % 0 in /  0.0 mm
21:56 55.4 °F /  13.0 °C 48.4 °F /  9.1 °C 30.3 in /  1026.0 hPa North 6.9 mph /  11.1 km/h 6.9 mph /  11.1 km/h 77 % 0 in /  0.0 mm
22:01 55.2 °F /  12.9 °C 47.8 °F /  8.8 °C 30.3 in /  1026.0 hPa North 7 mph /  11.3 km/h 7 mph /  11.3 km/h 76 % 0 in /  0.0 mm
22:06 55 °F /  12.8 °C 48 °F /  8.9 °C 30.3 in /  1026.0 hPa North 8.1 mph /  13.0 km/h 8.1 mph /  13.0 km/h 77 % 0 in /  0.0 mm
22:11 54.9 °F /  12.7 °C 47.8 °F /  8.8 °C 30.3 in /  1026.0 hPa NNE 8.1 mph /  13.0 km/h 8.1 mph /  13.0 km/h 77 % 0 in /  0.0 mm
22:16 54.9 °F /  12.7 °C 47.5 °F /  8.6 °C 30.3 in /  1026.0 hPa North 7 mph /  11.3 km/h 7 mph /  11.3 km/h 76 % 0 in /  0.0 mm
22:21 54.9 °F /  12.7 °C 47.5 °F /  8.6 °C 30.3 in /  1026.0 hPa North 6.9 mph /  11.1 km/h 6.9 mph /  11.1 km/h 76 % 0 in /  0.0 mm
22:26 55 °F /  12.8 °C 47.7 °F /  8.7 °C 30.3 in /  1026.0 hPa NNW 8.1 mph /  13.0 km/h 8.1 mph /  13.0 km/h 76 % 0 in /  0.0 mm
22:31 55 °F /  12.8 °C 47.7 °F /  8.7 °C 30.3 in /  1026.0 hPa North 9.2 mph /  14.8 km/h 9.2 mph /  14.8 km/h 76 % 0 in /  0.0 mm
22:36 55.2 °F /  12.9 °C 47.5 °F /  8.6 °C 30.3 in /  1026.0 hPa NNW 8.1 mph /  13.0 km/h 8.1 mph /  13.0 km/h 75 % 0 in /  0.0 mm
22:41 55.2 °F /  12.9 °C 47.1 °F /  8.4 °C 30.3 in /  1026.0 hPa North 9 mph /  14.5 km/h 9 mph /  14.5 km/h 74 % 0 in /  0.0 mm
22:46 55.2 °F /  12.9 °C 47.1 °F /  8.4 °C 30.3 in /  1026.0 hPa North 8.1 mph /  13.0 km/h 8.1 mph /  13.0 km/h 74 % 0 in /  0.0 mm
22:51 55.2 °F /  12.9 °C 47.1 °F /  8.4 °C 30.3 in /  1026.3 hPa North 6.9 mph /  11.1 km/h 6.9 mph /  11.1 km/h 74 % 0 in /  0.0 mm
22:56 55.2 °F /  12.9 °C 46.8 °F /  8.2 °C 30.3 in /  1026.3 hPa North 9.2 mph /  14.8 km/h 9.2 mph /  14.8 km/h 73 % 0 in /  0.0 mm
23:01 55.4 °F /  13.0 °C 46.9 °F /  8.3 °C 30.3 in /  1026.3 hPa North 9.2 mph /  14.8 km/h 9.2 mph /  14.8 km/h 73 % 0 in /  0.0 mm
23:06 55.6 °F /  13.1 °C 46.6 °F /  8.1 °C 30.3 in /  1026.3 hPa NNW 9.2 mph /  14.8 km/h 9.2 mph /  14.8 km/h 72 % 0 in /  0.0 mm
23:11 55.6 °F /  13.1 °C 46.6 °F /  8.1 °C 30.3 in /  1026.3 hPa North 8.1 mph /  13.0 km/h 8.1 mph /  13.0 km/h 72 % 0 in /  0.0 mm
23:16 55.6 °F /  13.1 °C 46.2 °F /  7.9 °C 30.3 in /  1026.3 hPa North 9.2 mph /  14.8 km/h 9.2 mph /  14.8 km/h 71 % 0 in /  0.0 mm
23:21 55.6 °F /  13.1 °C 46.2 °F /  7.9 °C 30.3 in /  1026.3 hPa North 6.9 mph /  11.1 km/h 6.9 mph /  11.1 km/h 71 % 0 in /  0.0 mm
23:26 55.4 °F /  13.0 °C 46.2 °F /  7.9 °C 30.3 in /  1026.3 hPa North 8.1 mph /  13.0 km/h 8.1 mph /  13.0 km/h 71 % 0 in /  0.0 mm
23:31 55.2 °F /  12.9 °C 46 °F /  7.8 °C 30.3 in /  1026.3 hPa North 9.2 mph /  14.8 km/h 9.2 mph /  14.8 km/h 71 % 0 in /  0.0 mm
23:36 55.2 °F /  12.9 °C 46 °F /  7.8 °C 30.3 in /  1026.3 hPa North 6.9 mph /  11.1 km/h 6.9 mph /  11.1 km/h 71 % 0 in /  0.0 mm
23:41 55 °F /  12.8 °C 45.9 °F /  7.7 °C 30.3 in /  1026.3 hPa North 9.2 mph /  14.8 km/h 9.2 mph /  14.8 km/h 71 % 0 in /  0.0 mm
23:47 55.2 °F /  12.9 °C 46 °F /  7.8 °C 30.3 in /  1026.3 hPa North 9.2 mph /  14.8 km/h 9.2 mph /  14.8 km/h 71 % 0 in /  0.0 mm
23:52 55 °F /  12.8 °C 45.9 °F /  7.7 °C 30.3 in /  1026.3 hPa North 8.1 mph /  13.0 km/h 8.1 mph /  13.0 km/h 71 % 0 in /  0.0 mm
23:57 55.2 °F /  12.9 °C 46 °F /  7.8 °C 30.3 in /  1026.3 hPa North 8.1 mph /  13.0 km/h 8.1 mph /  13.0 km/h 71 % 0 in /  0.0 mm
Puerto Banus, Marbella
Elogios de Weather Underground - 1.75 mb

Guión original por  Jim McMurry - jmcmurry@mwt.net Adaptado para la plantilla por  Wim van der Kuil - Leuven-Template.eu

Usted encontrará nuestra información del tiempo también en:

Weather Underground

Iberian Peninsula Weather Network